Time;durP1;ratioP1;P1;durP2;ratioP2;P2;SDS_P1;SDS_P2;PMS_P1;PMS_P2;Temp;Humidity;BMP_temperature;BMP_pressure;BME280_temperature;BME280_humidity;BME280_pressure;Samples;Min_cycle;Max_cycle;Signal;HPM_P1;HPM_P2
2021/10/17 00:00:01;;;;;;;11.45;7.32;;;10.00;99.90;;;;;;5048202;28;20037;-63
2021/10/17 00:02:26;;;;;;;17.65;7.22;;;10.00;99.90;;;;;;5050359;28;20064;-63
2021/10/17 00:04:52;;;;;;;13.30;7.75;;;10.00;99.90;;;;;;5032878;28;20079;-63
2021/10/17 00:07:17;;;;;;;10.57;7.38;;;10.00;99.90;;;;;;5051636;28;20040;-63
2021/10/17 00:09:43;;;;;;;12.13;8.30;;;9.90;99.90;;;;;;5050672;28;20040;-64
2021/10/17 00:12:11;;;;;;;13.85;8.18;;;9.90;99.90;;;;;;5030138;28;20052;-64
2021/10/17 00:14:37;;;;;;;13.55;7.28;;;9.90;99.90;;;;;;5027690;28;20045;-63
2021/10/17 00:17:05;;;;;;;11.48;7.10;;;9.90;99.90;;;;;;5050291;28;20498;-63
2021/10/17 00:19:30;;;;;;;14.90;7.82;;;9.90;99.90;;;;;;5032930;28;20075;-63
2021/10/17 00:21:56;;;;;;;11.90;7.60;;;9.80;99.90;;;;;;5050379;28;20081;-64
2021/10/17 00:24:22;;;;;;;14.93;7.80;;;9.70;99.90;;;;;;5035950;28;20045;-64
2021/10/17 00:26:48;;;;;;;12.60;7.57;;;9.60;99.90;;;;;;5055155;28;20037;-64
2021/10/17 00:29:13;;;;;;;9.35;6.88;;;9.50;99.90;;;;;;5055271;28;20053;-64
2021/10/17 00:31:39;;;;;;;12.20;7.53;;;9.50;99.90;;;;;;5050503;28;20063;-64
2021/10/17 00:34:04;;;;;;;13.30;7.65;;;9.40;99.90;;;;;;5054503;28;20096;-63
2021/10/17 00:36:33;;;;;;;15.30;7.82;;;9.30;99.90;;;;;;5054854;28;20478;-64
2021/10/17 00:38:58;;;;;;;12.45;6.95;;;9.20;99.90;;;;;;5054954;28;20037;-64
2021/10/17 00:41:24;;;;;;;10.77;6.93;;;9.10;99.90;;;;;;5054993;28;20040;-64
2021/10/17 00:43:50;;;;;;;11.90;7.35;;;9.10;99.90;;;;;;5055079;28;20033;-63
2021/10/17 00:46:20;;;;;;;13.75;7.72;;;9.00;99.90;;;;;;5054790;28;20387;-64
2021/10/17 00:48:47;;;;;;;14.57;7.13;;;8.90;99.90;;;;;;5048565;28;20098;-63
2021/10/17 00:51:13;;;;;;;9.50;7.07;;;8.90;99.90;;;;;;5054627;28;20052;-64
2021/10/17 00:53:39;;;;;;;13.93;7.63;;;8.90;99.90;;;;;;5054637;28;20041;-64
2021/10/17 00:56:06;;;;;;;14.90;7.90;;;8.80;99.90;;;;;;5054481;28;20037;-64
2021/10/17 00:58:32;;;;;;;15.55;7.38;;;8.70;99.90;;;;;;5054478;28;20056;-64
2021/10/17 01:00:58;;;;;;;14.38;7.93;;;8.70;99.90;;;;;;5051741;28;20037;-64
2021/10/17 01:03:23;;;;;;;10.70;7.70;;;8.70;99.90;;;;;;5051200;28;20386;-64
2021/10/17 01:05:50;;;;;;;15.10;7.85;;;8.70;99.90;;;;;;5031718;28;20474;-63
2021/10/17 01:08:16;;;;;;;14.25;7.93;;;8.70;99.90;;;;;;5054173;28;20033;-64
2021/10/17 01:10:43;;;;;;;13.65;7.53;;;8.60;99.90;;;;;;5054348;28;20089;-64
2021/10/17 01:13:17;;;;;;;15.10;8.10;;;8.70;99.90;;;;;;5052643;28;20045;-63
2021/10/17 01:15:43;;;;;;;13.07;7.60;;;8.70;99.90;;;;;;5054321;28;20049;-64
2021/10/17 01:18:08;;;;;;;13.68;7.07;;;8.70;99.90;;;;;;5053639;28;20087;-64
2021/10/17 01:20:34;;;;;;;13.73;7.53;;;8.70;99.90;;;;;;5056270;28;20072;-64
2021/10/17 01:23:00;;;;;;;16.33;7.57;;;8.70;99.90;;;;;;5058725;28;20142;-64
2021/10/17 01:25:26;;;;;;;14.57;7.78;;;8.70;99.90;;;;;;5037718;28;20045;-63
2021/10/17 01:27:52;;;;;;;10.77;7.22;;;8.70;99.90;;;;;;5047294;28;20048;-64
2021/10/17 01:30:18;;;;;;;10.20;7.43;;;8.70;99.90;;;;;;5055137;28;20045;-63
2021/10/17 01:32:44;;;;;;;10.27;7.53;;;8.80;99.90;;;;;;5059660;28;20524;-63
2021/10/17 01:35:10;;;;;;;13.10;7.63;;;8.80;99.90;;;;;;5050043;28;20041;-63
2021/10/17 01:37:35;;;;;;;14.60;7.57;;;8.80;99.90;;;;;;5047239;28;20040;-64
2021/10/17 01:40:01;;;;;;;12.43;7.55;;;8.80;99.90;;;;;;5050200;28;20783;-64
2021/10/17 01:42:27;;;;;;;10.90;8.07;;;8.80;99.90;;;;;;5052956;28;20032;-64
2021/10/17 01:44:52;;;;;;;13.02;7.40;;;8.80;99.90;;;;;;5039896;28;20045;-64
2021/10/17 01:47:18;;;;;;;11.50;7.53;;;8.80;99.90;;;;;;5035566;28;20378;-64
2021/10/17 01:49:43;;;;;;;11.63;6.90;;;8.90;99.90;;;;;;5050783;28;20036;-63
2021/10/17 01:52:09;;;;;;;11.00;7.30;;;8.90;99.90;;;;;;5050555;28;20041;-63
2021/10/17 01:54:35;;;;;;;12.65;7.43;;;8.90;99.90;;;;;;5046743;28;20039;-63
2021/10/17 01:57:01;;;;;;;14.00;7.70;;;8.90;99.90;;;;;;5049146;28;20036;-63
2021/10/17 01:59:26;;;;;;;10.77;6.75;;;9.00;99.90;;;;;;5051336;28;20033;-63
2021/10/17 02:01:52;;;;;;;11.68;7.20;;;9.00;99.90;;;;;;5030569;28;20053;-63
2021/10/17 02:04:17;;;;;;;13.57;7.07;;;9.00;99.90;;;;;;5051326;28;20048;-64
2021/10/17 02:06:43;;;;;;;14.27;7.60;;;9.10;99.90;;;;;;5051050;28;20079;-64
2021/10/17 02:09:09;;;;;;;12.25;7.85;;;9.10;99.90;;;;;;5045413;28;20120;-64
2021/10/17 02:11:35;;;;;;;15.07;8.57;;;9.10;99.90;;;;;;5050671;28;20044;-64
2021/10/17 02:14:00;;;;;;;14.30;7.70;;;9.10;99.90;;;;;;5049552;28;20041;-64
2021/10/17 02:16:26;;;;;;;13.82;8.82;;;9.20;99.90;;;;;;5050527;28;20505;-64
2021/10/17 02:18:51;;;;;;;11.55;8.48;;;9.20;99.90;;;;;;5050684;28;20032;-63
2021/10/17 02:21:17;;;;;;;16.20;8.20;;;9.20;99.90;;;;;;5031963;28;20028;-64
2021/10/17 02:23:43;;;;;;;14.00;8.30;;;9.20;99.90;;;;;;5049510;28;20494;-63
2021/10/17 02:26:08;;;;;;;15.93;9.38;;;9.30;99.90;;;;;;5048768;28;20037;-63
2021/10/17 02:28:34;;;;;;;17.25;8.45;;;9.30;99.90;;;;;;5031736;28;20037;-64
2021/10/17 02:31:00;;;;;;;14.60;9.35;;;9.30;99.90;;;;;;5052019;28;20041;-64
2021/10/17 02:33:25;;;;;;;13.70;8.68;;;9.30;99.90;;;;;;5049615;28;20037;-64
2021/10/17 02:35:51;;;;;;;13.32;9.60;;;9.40;99.90;;;;;;5051332;28;20045;-64
2021/10/17 02:38:17;;;;;;;15.90;10.32;;;9.30;99.90;;;;;;5050852;28;20068;-63
2021/10/17 02:40:42;;;;;;;17.58;9.77;;;9.40;99.90;;;;;;5048616;28;20048;-64
2021/10/17 02:43:08;;;;;;;17.85;10.30;;;9.40;99.90;;;;;;5045631;28;20041;-64
2021/10/17 02:45:37;;;;;;;19.55;10.57;;;9.40;99.90;;;;;;5047798;28;20041;-64
2021/10/17 02:48:04;;;;;;;20.58;10.07;;;9.40;99.90;;;;;;5050816;28;20528;-64
2021/10/17 02:50:30;;;;;;;18.05;10.43;;;9.40;99.90;;;;;;5049799;28;20514;-64
2021/10/17 02:52:55;;;;;;;19.15;10.75;;;9.40;99.90;;;;;;5047519;28;20077;-63
2021/10/17 02:55:21;;;;;;;15.32;10.15;;;9.40;99.90;;;;;;5048530;28;20037;-63
2021/10/17 02:57:47;;;;;;;15.52;10.13;;;9.50;99.90;;;;;;5046140;28;20598;-63
2021/10/17 03:00:13;;;;;;;13.77;10.38;;;9.50;99.90;;;;;;5047405;28;20053;-64
2021/10/17 03:02:38;;;;;;;13.98;10.07;;;9.40;99.90;;;;;;5047284;28;20033;-64
2021/10/17 03:05:05;;;;;;;17.48;10.52;;;9.40;99.90;;;;;;5029938;28;20037;-64
2021/10/17 03:07:30;;;;;;;19.05;10.50;;;9.40;99.90;;;;;;5048780;28;20055;-64
2021/10/17 03:09:56;;;;;;;14.30;10.88;;;9.40;99.90;;;;;;5047845;28;20044;-64
2021/10/17 03:12:21;;;;;;;14.32;9.65;;;9.40;99.90;;;;;;5037683;28;20041;-64
2021/10/17 03:14:47;;;;;;;17.75;10.60;;;9.40;99.90;;;;;;5047509;28;20068;-63
2021/10/17 03:17:12;;;;;;;19.23;10.80;;;9.40;99.90;;;;;;5049966;28;20127;-63
2021/10/17 03:19:38;;;;;;;16.50;9.75;;;9.40;99.90;;;;;;5051224;28;20041;-63
2021/10/17 03:22:03;;;;;;;16.23;9.57;;;9.40;99.90;;;;;;5046811;28;20501;-63
2021/10/17 03:24:29;;;;;;;14.48;9.68;;;9.40;99.90;;;;;;5048629;28;20029;-63
2021/10/17 03:26:54;;;;;;;15.52;9.73;;;9.30;99.90;;;;;;5048498;28;20065;-63
2021/10/17 03:29:20;;;;;;;16.33;9.85;;;9.30;99.90;;;;;;5032520;28;20566;-63
2021/10/17 03:31:45;;;;;;;13.63;9.52;;;9.30;99.90;;;;;;5048413;28;20044;-63
2021/10/17 03:34:11;;;;;;;10.68;8.40;;;9.30;99.90;;;;;;5050736;28;20045;-63
2021/10/17 03:36:36;;;;;;;14.07;7.82;;;9.30;99.90;;;;;;5049497;28;20379;-63
2021/10/17 03:39:03;;;;;;;14.15;8.68;;;9.30;99.90;;;;;;5033006;28;20541;-63
2021/10/17 03:41:29;;;;;;;11.63;7.75;;;9.20;99.90;;;;;;5049959;28;20037;-63
2021/10/17 03:43:55;;;;;;;15.13;8.13;;;9.20;99.90;;;;;;5049323;28;20604;-63
2021/10/17 03:46:20;;;;;;;14.88;9.00;;;9.20;99.90;;;;;;5048067;28;20043;-64
2021/10/17 03:48:47;;;;;;;14.38;8.90;;;9.20;99.90;;;;;;5048181;28;20386;-64
2021/10/17 03:51:12;;;;;;;14.18;7.72;;;9.20;99.90;;;;;;5051435;28;20044;-63
2021/10/17 03:53:38;;;;;;;14.55;8.00;;;9.20;99.90;;;;;;5049948;28;20563;-63
2021/10/17 03:56:04;;;;;;;12.45;7.43;;;9.20;99.90;;;;;;5051417;28;20048;-63
2021/10/17 03:58:29;;;;;;;13.55;8.23;;;9.20;99.90;;;;;;5048962;28;20037;-63
2021/10/17 04:00:55;;;;;;;11.80;7.43;;;9.20;99.90;;;;;;5048933;28;20033;-63
2021/10/17 04:03:20;;;;;;;15.30;8.35;;;9.10;99.90;;;;;;5047370;28;20072;-64
2021/10/17 04:05:46;;;;;;;15.50;8.65;;;9.20;99.90;;;;;;5031018;28;20056;-63
2021/10/17 04:08:11;;;;;;;12.48;8.50;;;9.20;99.90;;;;;;5048741;28;20120;-64
2021/10/17 04:10:37;;;;;;;14.02;7.40;;;9.20;99.90;;;;;;5051254;28;20075;-63
2021/10/17 04:13:03;;;;;;;11.82;7.40;;;9.20;99.90;;;;;;5049176;28;20049;-63
2021/10/17 04:15:28;;;;;;;12.57;7.82;;;9.20;99.90;;;;;;5045893;28;20116;-63
2021/10/17 04:17:54;;;;;;;12.85;7.85;;;9.20;99.90;;;;;;5047758;28;20049;-64
2021/10/17 04:20:20;;;;;;;14.15;7.80;;;9.20;99.90;;;;;;5047669;28;20068;-63
2021/10/17 04:22:45;;;;;;;14.77;7.55;;;9.30;99.90;;;;;;5047109;28;20061;-64
2021/10/17 04:25:11;;;;;;;13.27;8.60;;;9.30;99.90;;;;;;5049356;28;20053;-64
2021/10/17 04:27:37;;;;;;;15.75;8.15;;;9.30;99.90;;;;;;5049824;28;20115;-63
2021/10/17 04:30:06;;;;;;;13.18;7.95;;;9.30;99.90;;;;;;5049943;28;20040;-64
2021/10/17 04:32:32;;;;;;;16.00;8.50;;;9.30;99.90;;;;;;5050451;28;20040;-64
2021/10/17 04:34:58;;;;;;;14.02;7.55;;;9.30;99.90;;;;;;5030198;28;20488;-63
2021/10/17 04:37:24;;;;;;;12.50;7.28;;;9.30;99.90;;;;;;5046131;28;20048;-63
2021/10/17 04:39:50;;;;;;;11.60;7.93;;;9.40;99.90;;;;;;5049077;28;20040;-63
2021/10/17 04:42:15;;;;;;;18.00;8.52;;;9.30;99.90;;;;;;5049097;28;20033;-63
2021/10/17 04:44:41;;;;;;;13.35;7.40;;;9.40;99.90;;;;;;5048643;28;20064;-63
2021/10/17 04:47:07;;;;;;;13.80;7.72;;;9.30;99.90;;;;;;5048936;28;20485;-63
2021/10/17 04:49:32;;;;;;;14.82;8.13;;;9.40;99.90;;;;;;5047354;28;20041;-63
2021/10/17 04:51:58;;;;;;;12.10;7.68;;;9.30;99.90;;;;;;5047606;28;20049;-63
2021/10/17 04:54:23;;;;;;;13.10;7.93;;;9.40;99.90;;;;;;5046454;28;20037;-63
2021/10/17 04:56:49;;;;;;;15.18;7.97;;;9.40;99.90;;;;;;5047995;28;20044;-63
2021/10/17 04:59:17;;;;;;;13.55;7.60;;;9.40;99.90;;;;;;5048823;28;20115;-63
2021/10/17 05:01:43;;;;;;;10.82;6.90;;;9.40;99.90;;;;;;5048344;28;20045;-63
2021/10/17 05:04:08;;;;;;;14.55;7.78;;;9.40;99.90;;;;;;5048892;28;20087;-63
2021/10/17 05:06:34;;;;;;;13.80;7.90;;;9.40;99.90;;;;;;5049688;28;20124;-63
2021/10/17 05:08:59;;;;;;;11.93;7.85;;;9.40;99.90;;;;;;5050807;28;20122;-63
2021/10/17 05:11:25;;;;;;;11.82;6.85;;;9.40;99.90;;;;;;5052072;28;20030;-63
2021/10/17 05:13:52;;;;;;;11.82;7.72;;;9.50;99.90;;;;;;5053511;28;20119;-63
2021/10/17 05:16:18;;;;;;;14.65;7.82;;;9.50;99.90;;;;;;5053131;28;20045;-63
2021/10/17 05:18:43;;;;;;;16.05;8.63;;;9.50;99.90;;;;;;5053362;28;20035;-63
2021/10/17 05:21:09;;;;;;;18.23;8.13;;;9.50;99.90;;;;;;5054012;28;20037;-63
2021/10/17 05:23:35;;;;;;;11.68;7.93;;;9.50;99.90;;;;;;5053892;28;20103;-64
2021/10/17 05:26:03;;;;;;;16.58;7.95;;;9.50;99.90;;;;;;5035155;28;20441;-64
2021/10/17 05:28:29;;;;;;;13.30;8.00;;;9.40;99.90;;;;;;5049512;28;20044;-63
2021/10/17 05:30:55;;;;;;;16.00;7.32;;;9.50;99.90;;;;;;5049498;28;20441;-63
2021/10/17 05:33:20;;;;;;;13.27;7.90;;;9.50;99.90;;;;;;5049699;28;20037;-63
2021/10/17 05:35:46;;;;;;;13.90;7.82;;;9.50;99.90;;;;;;5051714;28;20044;-64
2021/10/17 05:38:12;;;;;;;14.65;7.85;;;9.50;99.90;;;;;;5032734;28;20370;-63
2021/10/17 05:40:37;;;;;;;13.48;8.60;;;9.40;99.90;;;;;;5051477;28;20033;-63
2021/10/17 05:43:03;;;;;;;15.02;8.30;;;9.50;99.90;;;;;;5050629;28;20434;-63
2021/10/17 05:45:28;;;;;;;12.98;7.28;;;9.50;99.90;;;;;;5050044;28;20064;-64
2021/10/17 05:47:54;;;;;;;13.30;7.80;;;9.40;99.90;;;;;;5049230;28;20045;-63
2021/10/17 05:50:20;;;;;;;13.70;7.93;;;9.40;99.90;;;;;;5050986;28;20037;-63
2021/10/17 05:52:45;;;;;;;12.80;7.97;;;9.40;99.90;;;;;;5033287;28;20045;-63
2021/10/17 05:55:11;;;;;;;17.65;8.68;;;9.40;99.90;;;;;;5044056;28;20498;-63
2021/10/17 05:57:38;;;;;;;13.82;7.65;;;9.40;99.90;;;;;;5050420;28;20040;-63
2021/10/17 06:00:05;;;;;;;13.38;7.90;;;9.40;99.90;;;;;;5049957;28;20064;-63
2021/10/17 06:02:30;;;;;;;15.38;8.82;;;9.30;99.90;;;;;;5050360;28;20033;-63
2021/10/17 06:04:56;;;;;;;13.80;8.32;;;9.30;99.90;;;;;;5048876;28;20118;-63
2021/10/17 06:07:22;;;;;;;14.25;8.18;;;9.30;99.90;;;;;;5052106;28;20040;-63
2021/10/17 06:09:48;;;;;;;12.02;8.30;;;9.30;99.90;;;;;;5050442;28;20033;-64
2021/10/17 06:12:13;;;;;;;16.08;8.60;;;9.30;99.90;;;;;;5051570;28;20056;-63
2021/10/17 06:14:39;;;;;;;12.90;8.60;;;9.30;99.90;;;;;;5052088;28;20106;-64
2021/10/17 06:17:05;;;;;;;15.15;8.13;;;9.30;99.90;;;;;;5045625;28;20040;-64
2021/10/17 06:19:30;;;;;;;11.52;8.50;;;9.30;99.90;;;;;;5034508;28;20102;-63
2021/10/17 06:21:57;;;;;;;14.90;8.57;;;9.30;99.90;;;;;;5051225;28;20094;-63
2021/10/17 06:24:23;;;;;;;13.75;9.35;;;9.30;99.90;;;;;;5051932;28;20052;-64
2021/10/17 06:26:48;;;;;;;14.10;8.50;;;9.30;99.90;;;;;;5027138;28;20052;-63
2021/10/17 06:29:14;;;;;;;13.25;8.88;;;9.40;99.90;;;;;;5052759;28;20029;-63
2021/10/17 06:31:40;;;;;;;12.77;8.88;;;9.30;99.90;;;;;;5051934;28;20116;-63
2021/10/17 06:34:05;;;;;;;12.63;8.73;;;9.40;99.90;;;;;;5046543;28;20518;-64
2021/10/17 06:36:31;;;;;;;16.17;8.60;;;9.40;99.90;;;;;;5055931;28;20041;-64
2021/10/17 06:38:57;;;;;;;11.55;8.05;;;9.40;99.90;;;;;;5052454;28;20033;-64
2021/10/17 06:41:23;;;;;;;12.38;8.48;;;9.40;99.90;;;;;;5034702;28;20047;-64
2021/10/17 06:43:48;;;;;;;16.48;9.02;;;9.40;99.90;;;;;;5036692;28;20112;-64
2021/10/17 06:46:14;;;;;;;12.95;8.35;;;9.40;99.90;;;;;;5051546;28;20033;-64
2021/10/17 06:48:40;;;;;;;14.07;9.23;;;9.40;99.90;;;;;;5052595;28;20037;-64
2021/10/17 06:51:05;;;;;;;13.65;8.00;;;9.50;99.90;;;;;;5046706;28;20037;-63
2021/10/17 06:53:31;;;;;;;15.07;9.60;;;9.50;99.90;;;;;;5051383;28;20043;-64
2021/10/17 06:55:56;;;;;;;13.60;8.63;;;9.50;99.90;;;;;;5053803;28;20039;-64
2021/10/17 06:58:22;;;;;;;13.63;8.05;;;9.60;99.90;;;;;;5031786;28;20044;-63
2021/10/17 07:00:48;;;;;;;13.20;8.82;;;9.60;99.90;;;;;;5051886;28;20048;-63
2021/10/17 07:03:13;;;;;;;14.38;8.50;;;9.60;99.90;;;;;;5051827;28;20045;-63
2021/10/17 07:05:39;;;;;;;11.70;8.73;;;9.70;99.90;;;;;;5049503;28;20036;-63
2021/10/17 07:08:05;;;;;;;13.88;8.30;;;9.70;99.90;;;;;;5033794;28;20144;-63
2021/10/17 07:10:30;;;;;;;15.75;8.35;;;9.70;99.90;;;;;;5052012;28;20098;-63
2021/10/17 07:12:56;;;;;;;14.20;8.48;;;9.70;99.90;;;;;;5051714;28;20069;-63
2021/10/17 07:15:21;;;;;;;15.57;9.13;;;9.70;99.90;;;;;;5034102;28;20037;-63
2021/10/17 07:17:47;;;;;;;13.77;8.05;;;9.80;99.90;;;;;;5045455;28;20428;-63
2021/10/17 07:20:12;;;;;;;15.63;8.50;;;9.80;99.90;;;;;;5048410;28;20110;-63
2021/10/17 07:22:38;;;;;;;13.48;8.45;;;9.70;99.90;;;;;;5009133;28;20183;-63
2021/10/17 07:25:04;;;;;;;15.88;8.45;;;9.80;99.90;;;;;;5041850;28;20074;-63
2021/10/17 07:27:30;;;;;;;12.25;7.68;;;9.80;99.90;;;;;;5033569;28;20041;-63
2021/10/17 07:29:55;;;;;;;15.35;8.15;;;9.80;99.90;;;;;;5032699;28;20068;-63
2021/10/17 07:32:21;;;;;;;11.43;8.02;;;9.80;99.90;;;;;;5049984;28;20036;-63
2021/10/17 07:34:46;;;;;;;16.88;8.07;;;9.80;99.90;;;;;;5050834;28;20372;-63
2021/10/17 07:37:12;;;;;;;13.55;8.35;;;9.90;99.90;;;;;;5040680;28;20719;-63
2021/10/17 07:39:37;;;;;;;11.60;8.68;;;9.90;99.90;;;;;;5045855;28;20090;-63
2021/10/17 07:42:03;;;;;;;15.13;8.68;;;9.90;99.90;;;;;;5053259;28;20107;-64
2021/10/17 07:44:29;;;;;;;13.05;8.60;;;9.90;99.90;;;;;;5050862;28;20075;-68
2021/10/17 07:46:54;;;;;;;12.00;7.93;;;10.00;99.90;;;;;;5050099;28;20120;-64
2021/10/17 07:49:20;;;;;;;14.48;9.00;;;10.00;99.90;;;;;;5030183;28;20051;-64
2021/10/17 07:51:45;;;;;;;14.30;8.20;;;10.10;99.90;;;;;;5050129;28;20037;-65
2021/10/17 07:54:11;;;;;;;15.27;8.35;;;10.20;99.90;;;;;;5044686;28;20048;-64
2021/10/17 07:56:37;;;;;;;17.08;8.43;;;10.20;99.90;;;;;;5041948;28;20481;-64
2021/10/17 07:59:03;;;;;;;14.32;8.23;;;10.30;99.90;;;;;;5046085;28;20659;-64
2021/10/17 08:01:28;;;;;;;13.65;8.15;;;10.30;99.90;;;;;;5032513;28;20033;-64
2021/10/17 08:03:54;;;;;;;16.23;8.32;;;10.40;99.90;;;;;;5032875;28;20040;-64
2021/10/17 08:06:19;;;;;;;15.98;7.88;;;10.50;99.90;;;;;;5051059;28;20565;-64
2021/10/17 08:08:45;;;;;;;10.77;7.38;;;10.60;99.90;;;;;;5050915;28;20790;-64
2021/10/17 08:11:11;;;;;;;14.93;8.23;;;10.60;99.90;;;;;;5031385;28;20565;-64
2021/10/17 08:13:36;;;;;;;14.32;8.32;;;10.60;99.90;;;;;;5050672;28;20598;-64
2021/10/17 08:16:02;;;;;;;12.35;8.50;;;10.60;99.90;;;;;;5051431;28;20051;-64
2021/10/17 08:18:28;;;;;;;13.98;8.35;;;10.70;99.90;;;;;;5016079;28;20534;-64
2021/10/17 08:20:54;;;;;;;15.45;8.45;;;10.70;99.90;;;;;;5032282;28;20410;-64
2021/10/17 08:23:19;;;;;;;10.48;7.03;;;10.70;99.90;;;;;;5050859;28;20064;-64
2021/10/17 08:25:45;;;;;;;17.13;8.98;;;10.80;99.90;;;;;;5051253;28;20041;-64
2021/10/17 08:28:12;;;;;;;12.98;8.52;;;10.70;99.90;;;;;;5045615;28;20033;-63
2021/10/17 08:30:38;;;;;;;14.18;7.75;;;10.80;99.90;;;;;;5051072;28;20036;-64
2021/10/17 08:33:03;;;;;;;13.52;8.60;;;10.80;99.90;;;;;;5050507;28;20119;-64
2021/10/17 08:35:29;;;;;;;14.52;8.45;;;10.80;99.90;;;;;;5050201;28;20368;-63
2021/10/17 08:37:54;;;;;;;17.70;8.52;;;10.90;99.90;;;;;;5027584;28;20559;-64
2021/10/17 08:40:20;;;;;;;15.43;8.52;;;10.90;99.90;;;;;;5038888;28;20083;-64
2021/10/17 08:42:46;;;;;;;14.40;8.07;;;10.90;99.90;;;;;;5029267;28;20042;-64
2021/10/17 08:45:11;;;;;;;11.77;7.90;;;10.90;99.90;;;;;;5047361;28;20029;-63
2021/10/17 08:47:37;;;;;;;15.30;8.23;;;10.90;99.90;;;;;;5049266;28;20037;-64
2021/10/17 08:50:05;;;;;;;15.57;7.85;;;11.00;99.90;;;;;;5054472;28;20142;-64
2021/10/17 08:52:31;;;;;;;14.35;9.15;;;10.90;99.90;;;;;;5048447;28;20049;-64
2021/10/17 08:54:56;;;;;;;14.52;9.05;;;11.00;99.90;;;;;;5050627;28;20055;-64
2021/10/17 08:57:22;;;;;;;15.63;9.82;;;11.00;99.90;;;;;;5053123;28;20730;-64
2021/10/17 08:59:48;;;;;;;13.95;8.45;;;11.10;99.90;;;;;;5049786;28;20506;-64
2021/10/17 09:02:18;;;;;;;14.25;8.50;;;11.10;99.90;;;;;;5053653;28;20827;-64
2021/10/17 09:05:04;;;;;;;16.45;7.45;;;11.10;99.90;;;;;;5045603;28;20714;-64
2021/10/17 09:07:30;;;;;;;15.52;8.57;;;11.20;99.90;;;;;;5050667;28;20116;-64
2021/10/17 09:10:11;;;;;;;12.52;7.70;;;11.20;99.90;;;;;;5053446;28;20116;-64
2021/10/17 09:12:38;;;;;;;14.27;8.35;;;11.30;99.90;;;;;;5017725;28;20047;-64
2021/10/17 09:15:29;;;;;;;11.07;7.50;;;11.30;99.90;;;;;;5051472;28;20049;-64
2021/10/17 09:18:24;;;;;;;12.98;8.35;;;11.30;99.90;;;;;;5047390;28;20072;-64
2021/10/17 09:20:57;;;;;;;11.88;7.68;;;11.40;99.90;;;;;;5010797;28;20487;-64
2021/10/17 09:23:22;;;;;;;12.70;7.60;;;11.50;99.90;;;;;;5032183;28;20045;-64
2021/10/17 09:25:56;;;;;;;11.73;7.45;;;11.50;99.90;;;;;;5051948;28;20529;-64
2021/10/17 09:28:23;;;;;;;13.63;8.07;;;11.60;99.90;;;;;;5032931;28;20041;-64
2021/10/17 09:31:07;;;;;;;13.60;7.70;;;11.60;99.90;;;;;;5034324;28;20128;-64
2021/10/17 09:33:42;;;;;;;13.52;7.63;;;11.60;99.90;;;;;;5050054;28;20056;-64
2021/10/17 09:36:21;;;;;;;12.57;7.20;;;11.70;99.90;;;;;;5053399;28;20162;-64
2021/10/17 09:38:50;;;;;;;14.57;6.97;;;11.70;99.90;;;;;;5051181;28;20037;-64
2021/10/17 09:41:21;;;;;;;12.40;7.47;;;11.80;99.90;;;;;;5047582;28;20037;-64
2021/10/17 09:43:56;;;;;;;13.05;6.78;;;11.80;99.90;;;;;;5033024;28;20051;-64
2021/10/17 09:46:22;;;;;;;13.98;7.05;;;11.90;99.90;;;;;;5047289;28;20041;-64
2021/10/17 09:48:49;;;;;;;16.60;7.70;;;11.80;99.90;;;;;;5042552;28;20029;-64
2021/10/17 09:51:26;;;;;;;10.15;7.28;;;11.80;99.90;;;;;;5032740;28;20077;-64
2021/10/17 09:53:59;;;;;;;12.25;7.53;;;11.80;99.90;;;;;;5051074;28;20101;-64
2021/10/17 09:56:31;;;;;;;11.10;7.15;;;11.80;99.90;;;;;;5032800;28;20148;-64
2021/10/17 09:59:02;;;;;;;10.00;7.07;;;11.80;99.90;;;;;;5050675;28;20045;-64
2021/10/17 10:01:28;;;;;;;10.98;6.88;;;11.80;99.90;;;;;;5036942;28;20367;-64
2021/10/17 10:03:56;;;;;;;11.32;7.85;;;11.80;99.90;;;;;;5052087;28;20563;-64
2021/10/17 10:06:23;;;;;;;13.73;7.47;;;11.80;99.90;;;;;;5047365;28;20045;-64
2021/10/17 10:08:53;;;;;;;10.98;7.40;;;11.80;99.90;;;;;;5022997;28;20064;-64
2021/10/17 10:11:23;;;;;;;13.63;7.20;;;11.80;99.90;;;;;;5049824;28;20390;-64
2021/10/17 10:13:51;;;;;;;12.43;7.45;;;11.80;99.90;;;;;;5044794;28;20037;-64
2021/10/17 10:16:20;;;;;;;12.00;7.25;;;11.80;99.90;;;;;;5046495;28;20045;-64
2021/10/17 10:18:50;;;;;;;11.85;7.95;;;11.80;99.90;;;;;;5052468;28;20067;-64
2021/10/17 10:21:15;;;;;;;11.80;7.45;;;11.80;99.90;;;;;;5049027;28;20033;-64
2021/10/17 10:23:41;;;;;;;13.50;7.97;;;11.80;99.90;;;;;;5052086;28;20055;-64
2021/10/17 10:26:07;;;;;;;14.43;7.53;;;11.80;99.90;;;;;;5051272;28;20107;-64
2021/10/17 10:28:34;;;;;;;11.85;7.35;;;11.80;99.90;;;;;;5051297;28;20041;-64
2021/10/17 10:30:59;;;;;;;13.82;7.03;;;11.90;99.90;;;;;;5046137;28;20678;-64
2021/10/17 10:33:28;;;;;;;12.15;7.50;;;11.90;99.90;;;;;;5041291;28;20055;-64
2021/10/17 10:38:52;;;;;;;12.52;6.80;;;11.90;99.90;;;;;;5043918;28;20048;-64
2021/10/17 10:41:21;;;;;;;12.75;7.20;;;11.90;99.90;;;;;;5052245;28;20037;-64
2021/10/17 10:43:47;;;;;;;9.55;6.63;;;11.90;99.90;;;;;;5030721;28;20076;-64
2021/10/17 10:46:27;;;;;;;13.55;7.20;;;11.90;99.90;;;;;;5051926;28;20478;-64
2021/10/17 10:48:53;;;;;;;11.30;6.72;;;12.00;99.90;;;;;;5052028;28;20733;-64
2021/10/17 10:51:37;;;;;;;12.85;6.68;;;12.10;99.90;;;;;;5051948;28;20040;-64
2021/10/17 10:54:03;;;;;;;11.35;6.78;;;12.20;99.90;;;;;;5049196;28;20045;-64
2021/10/17 10:56:43;;;;;;;13.20;6.55;;;12.30;99.90;;;;;;5051402;28;20033;-64
2021/10/17 10:59:09;;;;;;;11.15;6.55;;;12.40;99.90;;;;;;5051247;28;20107;-64
2021/10/17 11:02:00;;;;;;;10.82;6.28;;;12.50;99.90;;;;;;5051557;28;20025;-64
2021/10/17 11:04:37;;;;;;;14.63;6.60;;;12.60;99.90;;;;;;5051486;28;20730;-64
2021/10/17 11:07:22;;;;;;;10.07;6.07;;;12.70;99.90;;;;;;5050768;28;20044;-64
2021/10/17 11:09:51;;;;;;;9.52;6.15;;;12.80;99.90;;;;;;5030290;28;20047;-64
2021/10/17 11:12:38;;;;;;;14.52;7.03;;;12.90;99.90;;;;;;5046532;28;20041;-64
2021/10/17 11:15:05;;;;;;;9.40;5.93;;;13.00;99.90;;;;;;5047129;28;20445;-64
2021/10/17 11:17:31;;;;;;;13.05;6.05;;;13.10;99.90;;;;;;5051920;28;20041;-64
2021/10/17 11:19:57;;;;;;;10.73;6.32;;;13.20;99.90;;;;;;5049857;28;20049;-64
2021/10/17 11:22:23;;;;;;;11.18;6.95;;;13.20;99.90;;;;;;5047582;28;20051;-64
2021/10/17 11:24:53;;;;;;;11.70;6.15;;;13.30;99.90;;;;;;5050090;28;20028;-64
2021/10/17 11:27:19;;;;;;;10.80;6.55;;;13.40;99.90;;;;;;5051123;28;20112;-64
2021/10/17 11:29:45;;;;;;;10.20;5.57;;;13.50;99.90;;;;;;5047017;28;20489;-64
2021/10/17 11:32:19;;;;;;;9.38;6.60;;;13.50;99.90;;;;;;5013889;28;20082;-64
2021/10/17 11:35:03;;;;;;;10.02;6.25;;;13.50;99.90;;;;;;5045998;28;20056;-64
2021/10/17 11:37:31;;;;;;;9.38;5.47;;;13.60;99.90;;;;;;5045101;28;20057;-64
2021/10/17 11:40:03;;;;;;;8.80;5.60;;;13.70;99.90;;;;;;5050617;28;20103;-64
2021/10/17 11:42:29;;;;;;;;;;;13.60;99.90;;;;;;5045680;28;20052;-64
2021/10/17 11:44:56;;;;;;;10.45;5.20;;;13.50;99.90;;;;;;5032674;28;19962;-64
2021/10/17 11:47:23;;;;;;;11.27;5.75;;;13.50;99.90;;;;;;5027980;28;20040;-64
2021/10/17 11:49:49;;;;;;;10.40;5.75;;;13.60;99.90;;;;;;5050280;28;20037;-64
2021/10/17 11:52:16;;;;;;;15.45;6.20;;;13.60;99.90;;;;;;5048240;28;20043;-64
2021/10/17 11:54:46;;;;;;;10.93;5.65;;;13.60;99.90;;;;;;5016764;28;20041;-64
2021/10/17 11:57:31;;;;;;;8.20;5.78;;;13.50;99.90;;;;;;5050154;28;20245;-64
2021/10/17 12:00:00;;;;;;;9.52;5.57;;;13.50;99.90;;;;;;5050200;28;20036;-64
2021/10/17 12:02:36;;;;;;;11.30;6.72;;;13.40;99.90;;;;;;5032649;28;20041;-64
2021/10/17 12:05:15;;;;;;;10.15;5.72;;;13.40;99.90;;;;;;5014377;28;20048;-64
2021/10/17 12:07:41;;;;;;;11.82;6.32;;;13.30;99.90;;;;;;5046109;28;20037;-64
2021/10/17 12:10:12;;;;;;;7.32;5.18;;;13.30;99.90;;;;;;5048758;28;20033;-64
2021/10/17 12:12:42;;;;;;;10.10;5.03;;;13.30;99.90;;;;;;5040941;28;20512;-64
2021/10/17 12:15:08;;;;;;;12.07;5.63;;;13.30;99.90;;;;;;5047402;28;20044;-64
2021/10/17 12:17:35;;;;;;;13.48;6.22;;;13.30;99.90;;;;;;5050097;28;20029;-64
2021/10/17 12:20:10;;;;;;;11.27;7.30;;;13.30;99.90;;;;;;5048534;28;20034;-63
2021/10/17 12:22:39;;;;;;;13.23;6.93;;;13.40;99.90;;;;;;5049366;28;20041;-64
2021/10/17 12:25:05;;;;;;;14.45;6.88;;;13.40;99.90;;;;;;5048902;28;20470;-64
2021/10/17 12:27:35;;;;;;;9.50;5.43;;;13.50;99.90;;;;;;5049312;28;20083;-64
2021/10/17 12:30:05;;;;;;;10.65;5.90;;;13.60;99.90;;;;;;5009843;28;20041;-64
2021/10/17 12:33:11;;;;;;;9.45;5.38;;;13.60;99.90;;;;;;5046654;28;20041;-64
2021/10/17 12:35:38;;;;;;;9.30;5.55;;;13.70;99.90;;;;;;4947214;28;20511;-64
2021/10/17 12:38:13;;;;;;;8.15;4.97;;;13.80;99.90;;;;;;5028726;28;20079;-64
2021/10/17 12:40:54;;;;;;;12.25;5.40;;;13.80;99.90;;;;;;5051258;28;20041;-64
2021/10/17 12:43:37;;;;;;;6.53;4.75;;;13.90;99.90;;;;;;5043574;28;20354;-64
2021/10/17 12:46:18;;;;;;;7.72;4.80;;;13.90;99.90;;;;;;5047766;28;20371;-64